Carnival Splendor — 3EUS — position and weather

sailwx.info

Track history (hours):
 
Tides and Currents Weather Stations Pressure Air Temp Water Temp Dewpoint Dewpoint Depression Visibility Wind Speed Wind Dir Waves Ship Positions

Carnival Splendor

Last reported at 2014-Sep-22 09:33 UTC. Time now 2014-Sep-22 10:10 UTC.
Position N 42°22' W 070°34'.

Length 289 m; draft 8.3 m.

Type: Ship. MMSI: 372808000.

Date/timePositionNaut miles runAvg speedWind from/ knotsBaromVisibWave heightAir tempDewpointWater temp
2014-Sep-22 09:33N 42°22' W 070°34'1616.2
2014-Sep-22 08:34N 42°20' W 070°12'1310.6
2014-Sep-22 07:23N 42°14' W 069°57'3 7.8
2014-Sep-22 07:00N 42°12' W 069°54'813.4 240 / 28999.0 0.3 19.019.016.0
2014-Sep-22 06:24N 42°05' W 069°50'910.5
2014-Sep-22 05:32N 41°57' W 069°44'1010.2
2014-Sep-22 04:33N 41°48' W 069°38'10 9.8
2014-Sep-22 03:33N 41°39' W 069°32'1010.1
2014-Sep-22 02:32N 41°30' W 069°26'1210.8
2014-Sep-22 01:26N 41°19' W 069°19'1011.6
2014-Sep-22 00:32N 41°10' W 069°12'1111.5
2014-Sep-21 23:33N 40°60' W 069°06'1111.1
2014-Sep-21 22:33N 40°50' W 068°59'14 9.8
2014-Sep-21 21:08N 40°36' W 068°59'23 8.8
2014-Sep-21 18:32N 40°26' W 069°26'10 9.8
2014-Sep-21 17:33N 40°26' W 069°39'1010.1
2014-Sep-21 16:33N 40°25' W 069°52'10 9.9
2014-Sep-21 15:32N 40°25' W 070°05'1010.0
2014-Sep-21 14:33N 40°25' W 070°18'10 9.9
2014-Sep-21 13:33N 40°25' W 070°31'10 9.9
2014-Sep-21 12:33N 40°24' W 070°44'1010.0
2014-Sep-21 11:33N 40°24' W 070°57'1010.1
2014-Sep-21 10:33N 40°24' W 071°10'1010.3
2014-Sep-21 09:33N 40°24' W 071°24'1010.3
2014-Sep-21 08:34N 40°23' W 071°37'1010.1
2014-Sep-21 07:34N 40°23' W 071°50'1010.1
2014-Sep-21 06:34N 40°23' W 072°04'5 9.3
2014-Sep-21 06:00N 40°18' W 072°06'921.4 150 / 191016.010.8 0.522.017.023.0
2014-Sep-21 05:34N 40°23' W 072°16'1010.0
2014-Sep-21 04:34N 40°23' W 072°30'9 9.4
2014-Sep-21 03:33N 40°22' W 072°42'10 9.9
2014-Sep-21 02:34N 40°22' W 072°55'1010.4
2014-Sep-21 01:33N 40°22' W 073°08'1010.3
2014-Sep-21 00:33N 40°23' W 073°22'1010.0
2014-Sep-20 23:33N 40°25' W 073°35'10 9.8
2014-Sep-20 22:34N 40°27' W 073°47'1312.5
2014-Sep-20 21:33N 40°33' W 074°02'1312.2
2014-Sep-20 20:30N 40°46' W 074°01'1 0.1
2014-Sep-20 13:14N 40°46' W 073°60'3 0.9
2014-Sep-20 10:21N 40°44' W 074°01'911.1
2014-Sep-20 09:31N 40°34' W 074°02'1313.0
2014-Sep-20 08:29N 40°27' W 073°47'4814.5
2014-Sep-20 05:10N 40°29' W 072°44'915.3
2014-Sep-20 04:33N 40°30' W 072°32'1616.3
2014-Sep-20 03:34N 40°31' W 072°10'1717.2
2014-Sep-20 02:34N 40°31' W 071°48'1717.4
2014-Sep-20 01:33N 40°32' W 071°25'1717.4
2014-Sep-20 00:33N 40°32' W 071°02'1717.3
2014-Sep-19 23:34N 40°33' W 070°39'1717.0
2014-Sep-19 22:33N 40°33' W 070°17'1717.3
2014-Sep-19 21:33N 40°33' W 069°54'1817.7
2014-Sep-19 20:31N 40°34' W 069°30'1717.8
2014-Sep-19 19:33N 40°35' W 069°07'2518.0
2014-Sep-19 18:09N 40°39' W 068°34'423.6
2014-Sep-19 18:00N 40°36' W 068°36'20216.8 350 / 181026.010.8 1.014.0-2.019.0
2014-Sep-19 06:00N 42°24' W 064°48'13220.4 360 / 251016.010.8 1.015.010.019.0
2014-Sep-18 23:30N 44°23' W 063°28'1313.7
2014-Sep-18 22:33N 44°35' W 063°32'3 3.0
2014-Sep-18 21:27N 44°38' W 063°34'0 0.0
2014-Sep-18 20:33N 44°38' W 063°34'0 0.0
2014-Sep-18 19:29N 44°38' W 063°34'0 0.0
2014-Sep-18 18:32N 44°38' W 063°34'0 0.0
2014-Sep-18 17:32N 44°38' W 063°34'0 0.0
2014-Sep-18 16:25N 44°38' W 063°34'0 0.0
2014-Sep-18 15:31N 44°38' W 063°34'0 0.0
2014-Sep-18 14:27N 44°38' W 063°34'0 0.3
2014-Sep-18 13:33N 44°38' W 063°34'9 9.3
2014-Sep-18 12:33N 44°30' W 063°29'1211.7
2014-Sep-18 11:33N 44°18' W 063°27'1616.3
2014-Sep-18 10:33N 44°08' W 063°44'8418.4
2014-Sep-18 06:00N 43°18' W 065°18'81 3.4 200 / 101014.010.8 2.015.010.014.0
2014-Sep-17 06:00N 44°00' W 066°54'13018.7 200 / 151013.010.8 1.514.011.014.0
2014-Sep-16 23:03N 43°26' W 069°47'1019.3
2014-Sep-16 22:34N 43°29' W 069°60'1313.4
2014-Sep-16 21:34N 43°39' W 070°13'1 1.4
2014-Sep-16 20:32N 43°39' W 070°15'0 0.0
2014-Sep-16 19:31N 43°39' W 070°15'0 0.0
2014-Sep-16 18:31N 43°39' W 070°15'0 0.0
2014-Sep-16 17:30N 43°39' W 070°15'0 0.0
2014-Sep-16 16:30N 43°39' W 070°15'0 0.0
2014-Sep-16 15:29N 43°39' W 070°15'0 0.0
2014-Sep-16 14:32N 43°39' W 070°15'0 0.0
2014-Sep-16 13:32N 43°39' W 070°15'0 0.0
2014-Sep-16 12:31N 43°39' W 070°15'0 0.0
2014-Sep-16 11:31N 43°39' W 070°15'0 0.0
2014-Sep-16 10:33N 43°39' W 070°15'7 6.7
2014-Sep-16 09:34N 43°34' W 070°09'9 8.7
2014-Sep-16 08:34N 43°27' W 070°02'11 7.6
2014-Sep-16 07:08N 43°17' W 069°57'5 7.3
2014-Sep-16 06:30N 43°13' W 069°55'40 7.6
2014-Sep-16 01:18N 42°40' W 070°26'6 7.7
2014-Sep-16 00:30N 42°35' W 070°31'7 7.6
2014-Sep-15 23:34N 42°31' W 070°39'8 8.0
2014-Sep-15 22:34N 42°26' W 070°47'10 9.7
2014-Sep-15 21:32N 42°20' W 070°58'3 2.6
2014-Sep-15 20:27N 42°21' W 071°02'0 0.0
2014-Sep-15 17:19N 42°21' W 071°02'0 0.0
2014-Sep-15 16:16N 42°21' W 071°02'0 0.0
2014-Sep-15 15:13N 42°21' W 071°02'0 0.0
2014-Sep-15 14:30N 42°21' W 071°02'0 0.0
2014-Sep-15 13:33N 42°21' W 071°02'0 0.0
2014-Sep-15 12:32N 42°21' W 071°02'0 0.3
2014-Sep-15 11:30N 42°21' W 071°02'9 9.5
2014-Sep-15 10:33N 42°24' W 070°50'1313.1
2014-Sep-15 09:33N 42°22' W 070°33'1616.1
2014-Sep-15 08:33N 42°20' W 070°11'1514.6
2014-Sep-15 07:32N 42°12' W 069°55'1211.8
2014-Sep-15 06:30N 42°01' W 069°47'815.5
2014-Sep-15 06:00N 41°54' W 069°42'2 5.1 290 / 131022.010.8 1.014.0 6.016.0
2014-Sep-15 05:33N 41°52' W 069°41'1111.3
2014-Sep-15 04:33N 41°42' W 069°35'1212.1
2014-Sep-15 03:33N 41°31' W 069°27'1111.4
2014-Sep-15 02:33N 41°21' W 069°20'1010.4
2014-Sep-15 01:33N 41°12' W 069°14'10 9.3
2014-Sep-15 00:30N 41°03' W 069°08'10 9.4
2014-Sep-14 23:27N 40°54' W 069°02'9 9.5
2014-Sep-14 22:32N 40°47' W 068°56'7 7.1
2014-Sep-14 21:29N 40°40' W 068°52'9 8.6
2014-Sep-14 20:29N 40°34' W 068°60'1010.5
2014-Sep-14 19:33N 40°29' W 069°11'1010.1
2014-Sep-14 18:33N 40°26' W 069°23'5 9.5
2014-Sep-14 18:00N 40°24' W 069°30'613.7 010 / 231020.010.8 1.515.012.020.0
2014-Sep-14 17:33N 40°26' W 069°37'1210.4
2014-Sep-14 16:26N 40°25' W 069°53'910.0
2014-Sep-14 15:33N 40°25' W 070°04'10 9.7
2014-Sep-14 14:33N 40°25' W 070°17'10 9.8
2014-Sep-14 13:33N 40°25' W 070°30'1010.0
2014-Sep-14 12:33N 40°24' W 070°43'1010.3
2014-Sep-14 11:33N 40°24' W 070°57'1010.2
2014-Sep-14 10:33N 40°24' W 071°10'1010.2
2014-Sep-14 09:33N 40°24' W 071°24'1010.2
2014-Sep-14 08:33N 40°23' W 071°37'1010.4
2014-Sep-14 07:33N 40°23' W 071°51'1010.4
2014-Sep-14 06:33N 40°23' W 072°04'5 9.0
2014-Sep-14 06:00N 40°18' W 072°06'1023.3 010 / 251019.010.8 1.018.015.022.0
2014-Sep-14 05:33N 40°23' W 072°18'1010.3
2014-Sep-14 04:33N 40°22' W 072°31'1010.2
2014-Sep-14 03:33N 40°22' W 072°45'10 9.7
2014-Sep-14 02:33N 40°22' W 072°57'52 9.7
2014-Sep-13 21:07N 40°38' W 074°03'9 1.9
2014-Sep-13 16:25N 40°46' W 073°60'0 0.0
2014-Sep-13 12:21N 40°46' W 073°60'0 0.0
2014-Sep-13 11:30N 40°46' W 073°60'2 1.7
2014-Sep-13 10:27N 40°45' W 074°01'1011.5
2014-Sep-13 09:33N 40°34' W 074°02'1312.6
2014-Sep-13 08:33N 40°27' W 073°48'3913.1
2014-Sep-13 05:33N 40°30' W 072°56'1514.7
2014-Sep-13 04:33N 40°30' W 072°37'1515.0
2014-Sep-13 03:33N 40°31' W 072°17'1615.6
2014-Sep-13 02:33N 40°31' W 071°57'1616.4
2014-Sep-13 01:33N 40°31' W 071°35'1717.2
2014-Sep-13 00:32N 40°32' W 071°12'1818.4
2014-Sep-12 23:33N 40°32' W 070°49'1818.2
2014-Sep-12 22:33N 40°33' W 070°25'1817.8
2014-Sep-12 21:33N 40°33' W 070°01'1717.5
2014-Sep-12 20:33N 40°34' W 069°38'1716.8
2014-Sep-12 19:33N 40°34' W 069°16'1716.8
2014-Sep-12 18:33N 40°37' W 068°54'916.5
2014-Sep-12 18:00N 40°36' W 068°42'918.9 060 / 151017.010.8 1.018.013.023.0
2014-Sep-12 17:32N 40°40' W 068°32'1916.8
2014-Sep-12 16:24N 40°49' W 068°10'  
Track history (hours):
 
Tides and Currents Weather Stations Pressure Air Temp Water Temp Dewpoint Dewpoint Depression Visibility Wind Speed Wind Dir Waves Ship Positions

Carnival Splendor

Last reported at 2014-Sep-22 09:33 UTC. Time now 2014-Sep-22 10:10 UTC.
Position N 42°22' W 070°34'.

Length 289 m; draft 8.3 m.

Type: Ship. MMSI: 372808000.

Date/timePositionNaut miles runAvg speedWind from/ knotsBaromVisibWave heightAir tempDewpointWater temp
2014-Sep-22 09:33N 42°22' W 070°34'1616.2
2014-Sep-22 08:34N 42°20' W 070°12'1310.6
2014-Sep-22 07:23N 42°14' W 069°57'3 7.8
2014-Sep-22 07:00N 42°12' W 069°54'813.4 240 / 28999.0 0.3 19.019.016.0
2014-Sep-22 06:24N 42°05' W 069°50'910.5
2014-Sep-22 05:32N 41°57' W 069°44'1010.2
2014-Sep-22 04:33N 41°48' W 069°38'10 9.8
2014-Sep-22 03:33N 41°39' W 069°32'1010.1
2014-Sep-22 02:32N 41°30' W 069°26'1210.8
2014-Sep-22 01:26N 41°19' W 069°19'1011.6
2014-Sep-22 00:32N 41°10' W 069°12'1111.5
2014-Sep-21 23:33N 40°60' W 069°06'1111.1
2014-Sep-21 22:33N 40°50' W 068°59'14 9.8
2014-Sep-21 21:08N 40°36' W 068°59'23 8.8
2014-Sep-21 18:32N 40°26' W 069°26'10 9.8
2014-Sep-21 17:33N 40°26' W 069°39'1010.1
2014-Sep-21 16:33N 40°25' W 069°52'10 9.9
2014-Sep-21 15:32N 40°25' W 070°05'1010.0
2014-Sep-21 14:33N 40°25' W 070°18'10 9.9
2014-Sep-21 13:33N 40°25' W 070°31'10 9.9
2014-Sep-21 12:33N 40°24' W 070°44'1010.0
2014-Sep-21 11:33N 40°24' W 070°57'1010.1
2014-Sep-21 10:33N 40°24' W 071°10'1010.3
2014-Sep-21 09:33N 40°24' W 071°24'1010.3
2014-Sep-21 08:34N 40°23' W 071°37'1010.1
2014-Sep-21 07:34N 40°23' W 071°50'1010.1
2014-Sep-21 06:34N 40°23' W 072°04'5 9.3
2014-Sep-21 06:00N 40°18' W 072°06'921.4 150 / 191016.010.8 0.522.017.023.0
2014-Sep-21 05:34N 40°23' W 072°16'1010.0
2014-Sep-21 04:34N 40°23' W 072°30'9 9.4
2014-Sep-21 03:33N 40°22' W 072°42'10 9.9
2014-Sep-21 02:34N 40°22' W 072°55'1010.4
2014-Sep-21 01:33N 40°22' W 073°08'1010.3
2014-Sep-21 00:33N 40°23' W 073°22'1010.0
2014-Sep-20 23:33N 40°25' W 073°35'10 9.8
2014-Sep-20 22:34N 40°27' W 073°47'1312.5
2014-Sep-20 21:33N 40°33' W 074°02'1312.2
2014-Sep-20 20:30N 40°46' W 074°01'1 0.1
2014-Sep-20 13:14N 40°46' W 073°60'3 0.9
2014-Sep-20 10:21N 40°44' W 074°01'911.1
2014-Sep-20 09:31N 40°34' W 074°02'1313.0
2014-Sep-20 08:29N 40°27' W 073°47'4814.5
2014-Sep-20 05:10N 40°29' W 072°44'915.3
2014-Sep-20 04:33N 40°30' W 072°32'1616.3
2014-Sep-20 03:34N 40°31' W 072°10'1717.2
2014-Sep-20 02:34N 40°31' W 071°48'1717.4
2014-Sep-20 01:33N 40°32' W 071°25'1717.4
2014-Sep-20 00:33N 40°32' W 071°02'1717.3
2014-Sep-19 23:34N 40°33' W 070°39'1717.0
2014-Sep-19 22:33N 40°33' W 070°17'1717.3
2014-Sep-19 21:33N 40°33' W 069°54'1817.7
2014-Sep-19 20:31N 40°34' W 069°30'1717.8
2014-Sep-19 19:33N 40°35' W 069°07'2518.0
2014-Sep-19 18:09N 40°39' W 068°34'423.6
2014-Sep-19 18:00N 40°36' W 068°36'20216.8 350 / 181026.010.8 1.014.0-2.019.0
2014-Sep-19 06:00N 42°24' W 064°48'13220.4 360 / 251016.010.8 1.015.010.019.0
2014-Sep-18 23:30N 44°23' W 063°28'1313.7
2014-Sep-18 22:33N 44°35' W 063°32'3 3.0
2014-Sep-18 21:27N 44°38' W 063°34'0 0.0
2014-Sep-18 20:33N 44°38' W 063°34'0 0.0
2014-Sep-18 19:29N 44°38' W 063°34'0 0.0
2014-Sep-18 18:32N 44°38' W 063°34'0 0.0
2014-Sep-18 17:32N 44°38' W 063°34'0 0.0
2014-Sep-18 16:25N 44°38' W 063°34'0 0.0
2014-Sep-18 15:31N 44°38' W 063°34'0 0.0
2014-Sep-18 14:27N 44°38' W 063°34'0 0.3
2014-Sep-18 13:33N 44°38' W 063°34'9 9.3
2014-Sep-18 12:33N 44°30' W 063°29'1211.7
2014-Sep-18 11:33N 44°18' W 063°27'1616.3
2014-Sep-18 10:33N 44°08' W 063°44'8418.4
2014-Sep-18 06:00N 43°18' W 065°18'81 3.4 200 / 101014.010.8 2.015.010.014.0
2014-Sep-17 06:00N 44°00' W 066°54'13018.7 200 / 151013.010.8 1.514.011.014.0
2014-Sep-16 23:03N 43°26' W 069°47'1019.3
2014-Sep-16 22:34N 43°29' W 069°60'1313.4
2014-Sep-16 21:34N 43°39' W 070°13'1 1.4
2014-Sep-16 20:32N 43°39' W 070°15'0 0.0
2014-Sep-16 19:31N 43°39' W 070°15'0 0.0
2014-Sep-16 18:31N 43°39' W 070°15'0 0.0
2014-Sep-16 17:30N 43°39' W 070°15'0 0.0
2014-Sep-16 16:30N 43°39' W 070°15'0 0.0
2014-Sep-16 15:29N 43°39' W 070°15'0 0.0
2014-Sep-16 14:32N 43°39' W 070°15'0 0.0
2014-Sep-16 13:32N 43°39' W 070°15'0 0.0
2014-Sep-16 12:31N 43°39' W 070°15'0 0.0
2014-Sep-16 11:31N 43°39' W 070°15'0 0.0
2014-Sep-16 10:33N 43°39' W 070°15'7 6.7
2014-Sep-16 09:34N 43°34' W 070°09'9 8.7
2014-Sep-16 08:34N 43°27' W 070°02'11 7.6
2014-Sep-16 07:08N 43°17' W 069°57'5 7.3
2014-Sep-16 06:30N 43°13' W 069°55'40 7.6
2014-Sep-16 01:18N 42°40' W 070°26'6 7.7
2014-Sep-16 00:30N 42°35' W 070°31'7 7.6
2014-Sep-15 23:34N 42°31' W 070°39'8 8.0
2014-Sep-15 22:34N 42°26' W 070°47'10 9.7
2014-Sep-15 21:32N 42°20' W 070°58'3 2.6
2014-Sep-15 20:27N 42°21' W 071°02'0 0.0
2014-Sep-15 17:19N 42°21' W 071°02'0 0.0
2014-Sep-15 16:16N 42°21' W 071°02'0 0.0
2014-Sep-15 15:13N 42°21' W 071°02'0 0.0
2014-Sep-15 14:30N 42°21' W 071°02'0 0.0
2014-Sep-15 13:33N 42°21' W 071°02'0 0.0
2014-Sep-15 12:32N 42°21' W 071°02'0 0.3
2014-Sep-15 11:30N 42°21' W 071°02'9 9.5
2014-Sep-15 10:33N 42°24' W 070°50'1313.1
2014-Sep-15 09:33N 42°22' W 070°33'1616.1
2014-Sep-15 08:33N 42°20' W 070°11'1514.6
2014-Sep-15 07:32N 42°12' W 069°55'1211.8
2014-Sep-15 06:30N 42°01' W 069°47'815.5
2014-Sep-15 06:00N 41°54' W 069°42'2 5.1 290 / 131022.010.8 1.014.0 6.016.0
2014-Sep-15 05:33N 41°52' W 069°41'1111.3
2014-Sep-15 04:33N 41°42' W 069°35'1212.1
2014-Sep-15 03:33N 41°31' W 069°27'1111.4
2014-Sep-15 02:33N 41°21' W 069°20'1010.4
2014-Sep-15 01:33N 41°12' W 069°14'10 9.3
2014-Sep-15 00:30N 41°03' W 069°08'10 9.4
2014-Sep-14 23:27N 40°54' W 069°02'9 9.5
2014-Sep-14 22:32N 40°47' W 068°56'7 7.1
2014-Sep-14 21:29N 40°40' W 068°52'9 8.6
2014-Sep-14 20:29N 40°34' W 068°60'1010.5
2014-Sep-14 19:33N 40°29' W 069°11'1010.1
2014-Sep-14 18:33N 40°26' W 069°23'5 9.5
2014-Sep-14 18:00N 40°24' W 069°30'613.7 010 / 231020.010.8 1.515.012.020.0
2014-Sep-14 17:33N 40°26' W 069°37'1210.4
2014-Sep-14 16:26N 40°25' W 069°53'910.0
2014-Sep-14 15:33N 40°25' W 070°04'10 9.7
2014-Sep-14 14:33N 40°25' W 070°17'10 9.8
2014-Sep-14 13:33N 40°25' W 070°30'1010.0
2014-Sep-14 12:33N 40°24' W 070°43'1010.3
2014-Sep-14 11:33N 40°24' W 070°57'1010.2
2014-Sep-14 10:33N 40°24' W 071°10'1010.2
2014-Sep-14 09:33N 40°24' W 071°24'1010.2
2014-Sep-14 08:33N 40°23' W 071°37'1010.4
2014-Sep-14 07:33N 40°23' W 071°51'1010.4
2014-Sep-14 06:33N 40°23' W 072°04'5 9.0
2014-Sep-14 06:00N 40°18' W 072°06'1023.3 010 / 251019.010.8 1.018.015.022.0
2014-Sep-14 05:33N 40°23' W 072°18'1010.3
2014-Sep-14 04:33N 40°22' W 072°31'1010.2
2014-Sep-14 03:33N 40°22' W 072°45'10 9.7
2014-Sep-14 02:33N 40°22' W 072°57'52 9.7
2014-Sep-13 21:07N 40°38' W 074°03'9 1.9
2014-Sep-13 16:25N 40°46' W 073°60'0 0.0
2014-Sep-13 12:21N 40°46' W 073°60'0 0.0
2014-Sep-13 11:30N 40°46' W 073°60'2 1.7
2014-Sep-13 10:27N 40°45' W 074°01'1011.5
2014-Sep-13 09:33N 40°34' W 074°02'1312.6
2014-Sep-13 08:33N 40°27' W 073°48'3913.1
2014-Sep-13 05:33N 40°30' W 072°56'1514.7
2014-Sep-13 04:33N 40°30' W 072°37'1515.0
2014-Sep-13 03:33N 40°31' W 072°17'1615.6
2014-Sep-13 02:33N 40°31' W 071°57'1616.4
2014-Sep-13 01:33N 40°31' W 071°35'1717.2
2014-Sep-13 00:32N 40°32' W 071°12'1818.4
2014-Sep-12 23:33N 40°32' W 070°49'1818.2
2014-Sep-12 22:33N 40°33' W 070°25'1817.8
2014-Sep-12 21:33N 40°33' W 070°01'1717.5
2014-Sep-12 20:33N 40°34' W 069°38'1716.8
2014-Sep-12 19:33N 40°34' W 069°16'1716.8
2014-Sep-12 18:33N 40°37' W 068°54'916.5
2014-Sep-12 18:00N 40°36' W 068°42'918.9 060 / 151017.010.8 1.018.013.023.0
2014-Sep-12 17:32N 40°40' W 068°32'1916.8
2014-Sep-12 16:24N 40°49' W 068°10'  

Dump ship's entire track history